x

8454000 - Providence, Ri (foxr1) Weather Station

5:54 - Wed 22nd Feb 2017 All times are EST. -5 hours from GMT.

  • Wind
    3mph, 5mph gusts
  • Sea Temp 39°f
  • Ar Temp 40°f
  • Sea Pressure 1016.5mb
  • 8454000 - Providence, Ri
  • 8454000 - Providence, Ri

More Historic Weather Station data

Upgrade to MSW Pro to gain access to the past 30 days of data for over 8000 Wavebouys and Weather Stations around the globe.

Join Pro

Comparision Forecast

View Surf forecast
   
Qua 02/22 5:54 3 5 mph 1016.5mb 39f 40f
5:48 3 6 mph 1016.6mb 39f 40f
5:42 3 6 mph 1016.7mb 39f 40f
5:36 2 5 mph 1016.6mb 39f 39f
5:30 3 5 mph 1016.6mb 39f 39f
5:24 3 5 mph 1016.7mb 39f 39f
5:18 3 5 mph 1016.6mb 39f 39f
5:12 3 5 mph 1016.7mb 39f 39f
5:06 5 6 mph 1016.7mb 39f 39f
5:00 5
mph
1016.7mb 39f 39f
4:54 5 6 mph 1016.7mb 39f 38f
4:48 2 3 mph 1016.8mb 39f 38f
4:42 3 6 mph 1016.7mb 39f 38f
4:36 5
mph
1016.7mb 39f 38f
4:30 3 5 mph 1016.8mb 39f 38f
4:24 3 5 mph 1016.8mb 39f 38f
4:18 5 6 mph 1016.8mb 39f 38f
4:12 6 7 mph 1016.8mb 39f 38f
4:06 6 7 mph 1017mb 39f 38f
4:00 6
mph
1017mb 39f 38f
3:54 5 6 mph 1017.1mb 39f 38f
3:48 5 6 mph 1017.2mb 39f 38f
3:42 5 6 mph 1017.3mb 39f 38f
3:36 5 6 mph 1017.4mb 39f 38f
3:30 5 7 mph 1017.4mb 39f 38f
3:24 5 7 mph 1017.4mb 39f 38f
3:18 5 6 mph 1017.4mb 39f 38f
3:12 5 7 mph 1017.5mb 39f 38f
3:06 5 7 mph 1017.5mb 39f 38f
3:00 6 8 mph 1017.5mb 39f 37f
2:54 5 7 mph 1017.6mb 39f 37f
2:48 5 6 mph 1017.5mb 39f 37f
2:42 5 6 mph 1017.5mb 39f 37f
2:36 5 6 mph 1017.5mb 39f 37f
2:30 5 6 mph 1017.6mb 39f 37f
2:24 5 7 mph 1017.8mb 39f 38f
2:18 3 6 mph 1017.8mb 39f 37f
2:12 5 7 mph 1017.7mb 39f 37f
2:06 6 8 mph 1017.7mb 39f 37f
2:00 5 7 mph 1017.7mb 39f 37f
1:54 6 8 mph 1017.6mb 39f 37f
1:48 6 8 mph 1017.8mb - -
1:42 7 8 mph 1017.8mb - -
1:36 6 8 mph 1017.9mb - -
1:30 6 8 mph 1018.1mb 38f 37f
1:24 6 10 mph 1018.2mb 38f 37f
1:18 6 8 mph 1018.2mb 38f 37f
1:12 6 7 mph 1018.4mb 38f 37f
1:06 6 9 mph 1018.4mb 38f 37f
1:00 7 9 mph 1018.4mb 38f 38f
12:54 6 8 mph 1018.7mb 38f 38f
12:48 6 9 mph 1018.7mb 38f 38f
12:42 6 10 mph 1018.8mb 38f 38f
12:36 7 10 mph 1018.8mb 38f 38f
12:30 7 9 mph 1019mb 38f 38f
12:24 6 10 mph 1019.1mb 38f 38f
12:18 8 10 mph 1019.1mb 38f 37f
12:12 6 8 mph 1019.3mb 38f 37f
12:06 6 8 mph 1019.4mb 38f 37f
12:00 6 8 mph 1019.6mb 38f 37f
Ter 02/21 11:54 6 10 mph 1019.6mb 38f 37f
11:48 7 10 mph 1019.3mb 38f 38f
11:42 7 10 mph 1019.5mb 38f 38f
11:36 8 10 mph 1019.7mb 38f 38f
11:30 6 9 mph 1019.8mb 38f 38f
11:24 8 10 mph 1019.7mb 38f 37f
11:18 5 8 mph 1019.7mb 39f 37f
11:12 7 9 mph 1019.8mb 39f 37f
11:06 6 9 mph 1020mb 39f 37f
11:00 5 8 mph 1020.2mb 39f 37f
10:54 7 8 mph 1020.3mb 39f 37f
10:48 6 8 mph 1020.4mb 39f 37f
10:42 6 8 mph 1020.5mb 39f 37f
10:36 6 8 mph 1020.5mb 39f 37f
10:30 7 8 mph 1020.6mb 39f 37f
10:24 5 6 mph 1020.7mb 39f 37f
10:18 5 9 mph 1020.8mb 39f 37f
10:12 5 7 mph 1020.9mb 39f 37f
10:06 5 6 mph 1021mb 39f 37f
10:00 5 7 mph 1021.1mb 39f 38f
9:54 5 7 mph 1021.2mb 39f 38f
9:48 3 8 mph 1021.3mb 39f 38f
9:42 5 7 mph 1021.3mb 39f 38f
9:36 3 8 mph 1021.2mb 39f 38f
9:30 6 8 mph 1021.2mb 39f 38f
9:24 7 8 mph 1021.1mb 39f 38f
9:18 8 9 mph 1021.1mb 39f 38f
9:12 7 9 mph 1021.1mb 39f 38f
9:06 7 9 mph 1021.2mb 38f 38f
9:00 7 10 mph 1021.3mb 38f 38f
8:54 5 7 mph 1021.4mb 38f 38f
8:48 7 8 mph 1021.4mb 38f 38f
8:42 8 9 mph 1021.7mb 38f 38f
8:36 6 9 mph 1021.8mb 38f 38f
8:30 7 13 mph 1021.9mb 38f 38f
8:24 6 9 mph 1021.8mb 38f 38f
8:18 7 10 mph 1022.1mb 38f 38f
8:12 9 11 mph 1022.3mb 38f 39f
8:06 10 14 mph 1022.4mb 38f 39f
8:00 6 14 mph 1022.4mb 38f 39f
7:54 9 15 mph 1022.3mb 38f 39f
7:48 10 14 mph 1022.4mb 38f 39f
7:42 11 15 mph 1022.4mb 38f 39f
7:36 11 14 mph 1022.4mb 38f 39f
7:30 8 16 mph 1022.1mb 38f 39f
7:24 8 13 mph 1022.1mb 38f 39f
7:18 10 15 mph 1021.9mb 38f 39f
7:12 8 15 mph 1021.7mb 38f 39f
7:06 9 14 mph 1021.9mb 38f 39f
7:00 7 13 mph 1022.2mb 38f 40f
6:54 10 13 mph 1022.3mb 38f 40f
6:48 7 11 mph 1022.4mb 38f 40f
6:42 8 13 mph 1022.1mb 38f 40f
6:36 8 10 mph 1022.1mb 38f 40f
6:30 9 11 mph 1022.2mb 38f 40f
6:24 8 11 mph 1022.4mb 38f 40f
6:18 8 11 mph 1022.5mb 38f 40f
6:12 8 10 mph 1022.7mb 38f 40f
6:06 8 11 mph 1022.8mb 38f 40f
6:00 10 14 mph 1022.9mb 38f 40f
5:54 10 14 mph 1022.9mb 38f 40f
5:48 8 11 mph 1022.9mb 37f 40f
5:42 8 13 mph 1022.8mb 37f 40f
5:36 11 15 mph 1022.7mb 37f 40f
5:30 9 13 mph 1022.6mb 37f 40f
5:24 10 13 mph 1022.5mb 38f 40f
5:18 9 13 mph 1022.6mb 38f 40f
5:12 9 13 mph 1022.6mb 38f 40f
5:06 13 15 mph 1022.6mb 38f 40f
5:00 11 14 mph 1022.6mb 38f 41f
4:54 11 14 mph 1022.7mb 38f 41f
4:48 8 14 mph 1022.9mb 38f 41f
4:42 8 14 mph 1022.8mb 38f 41f
4:36 10 14 mph 1022.8mb 38f 41f
4:30 10 14 mph 1022.9mb 38f 41f
4:24 11 15 mph 1022.9mb 38f 41f
4:18 11 16 mph 1022.9mb 38f 41f
4:12 13 16 mph 1022.8mb 38f 41f
4:06 13 16 mph 1022.8mb 38f 41f
4:00 11 15 mph 1022.9mb 38f 41f
3:54 14 15 mph 1023mb 38f 41f
3:48 10 13 mph 1023mb 38f 41f
3:42 9 13 mph 1023.1mb 38f 42f
3:36 13 15 mph 1023.2mb 38f 42f
3:30 11 14 mph 1023.3mb 38f 42f
3:24 13 14 mph 1023.4mb 38f 42f
3:18 11 14 mph 1023.5mb 38f 42f
3:12 13 15 mph 1023.5mb 38f 42f
3:06 13 15 mph 1023.5mb 38f 42f
3:00 10 14 mph 1023.5mb 38f 42f
2:54 13 15 mph 1023.7mb 38f 42f
2:48 13 15 mph 1023.6mb 38f 42f
2:42 11 15 mph 1023.8mb 38f 42f
2:36 13 14 mph 1023.7mb 38f 43f
2:30 10 11 mph 1023.8mb 38f 43f
2:24 9 10 mph 1024.1mb 38f 44f
2:18 8 9 mph 1024.1mb 38f 43f
2:12 9
mph
1024mb 38f 43f
2:06 7 9 mph 1024mb 38f 42f
2:00 9 10 mph 1024mb 38f 42f
1:54 9 11 mph 1024.1mb 38f 43f
1:48 9 10 mph 1024.2mb 38f 42f
1:42 7 9 mph 1024.1mb 38f 42f
1:36 6 8 mph 1024.3mb 38f 42f
1:30 7 8 mph 1024.4mb 38f 42f
1:24 7 8 mph 1024.5mb 37f 42f
1:18 7 9 mph 1024.6mb 37f 42f
1:12 7 9 mph 1024.7mb 37f 42f
1:06 6 8 mph 1024.9mb 37f 41f
1:00 6 8 mph 1024.9mb 37f 41f
12:54 7 9 mph 1025.1mb 37f 41f
12:48 9
mph
1025.2mb 37f 41f
12:42 8 9 mph 1025.4mb 37f 41f
12:36 8 9 mph 1025.7mb 37f 41f
12:30 6 7 mph 1025.8mb 37f 41f
12:24 6 7 mph 1025.8mb 37f 41f
12:18 6 8 mph 1025.9mb 37f 40f
12:12 6 7 mph 1026mb 37f 40f
12:06 6
mph
1026.1mb 37f 40f
12:00 5 6 mph 1026.2mb 37f 40f
11:54 5 6 mph 1026.2mb 37f 40f
11:48 2 5 mph 1026.3mb 37f 41f
11:42 2 5 mph 1026.4mb 37f 41f
11:36 1 3 mph 1026.5mb 37f 41f
11:30 3 6 mph 1026.7mb 37f 40f
11:24 3 5 mph 1026.8mb 37f 40f
11:18 3 5 mph 1026.8mb 37f 40f
11:12 3 5 mph 1026.9mb 37f 40f
11:06 3 5 mph 1027.1mb 37f 40f
11:00 1 2 mph 1027.2mb 37f 39f
10:54 2
mph
1027.3mb 37f 40f
10:48  -  5 mph 1027.4mb 37f 41f
10:42 2 5 mph 1027.5mb 37f 40f
10:36 1 2 mph 1027.2mb 37f 39f
10:30 1 2 mph 1027.1mb 37f 38f
10:24 2
mph
1027.2mb 37f 38f
10:18  -  2 mph 1027.3mb 37f 39f
10:12  -  1 mph 1027.4mb 37f 39f
10:06  -  2 mph 1027.4mb 37f 39f
10:00  -  2 mph 1027.4mb 37f 38f
9:54 1 3 mph 1027.5mb 37f 37f
9:48  -  3 mph 1027.5mb 37f 37f
9:42 1 5 mph 1027.5mb 37f 37f
9:36 2 5 mph 1027.8mb 37f 36f
9:30 3 5 mph 1027.9mb 37f 36f
9:24 2 3 mph 1028.1mb 37f 36f
9:18 3 6 mph 1028.1mb 37f 35f
9:12 2 5 mph 1028.2mb 37f 35f
9:06 1 3 mph 1028.4mb 37f 35f
9:00 1 3 mph 1028.4mb 37f 35f
8:54 1 5 mph 1028.3mb 37f 34f
8:48 2 3 mph 1028.2mb 37f 34f
8:42  -  3 mph 1028.2mb 37f 34f
8:36 2 5 mph 1028.1mb 37f 34f
8:30 2 5 mph 1028.3mb 37f 36f
8:24 2 7 mph 1028.1mb 37f 37f
8:18 2 6 mph 1028.1mb 37f 35f
8:12 3 7 mph 1028.2mb 37f 34f
8:06 5 7 mph 1028.3mb 37f 34f
8:00 3 6 mph 1028.3mb 37f 34f
7:54 3 7 mph 1028.3mb 37f 33f
7:48 2 6 mph 1028.4mb 37f 33f
7:42 2 6 mph 1028.4mb 37f 33f
7:36 2 3 mph 1028.5mb 37f 33f
7:30 3 5 mph 1028.6mb 37f 32f
7:24 3 5 mph 1028.6mb 37f 32f
7:18 2 6 mph 1028.5mb 37f 31f
7:12 2 5 mph 1028.4mb 37f 31f
7:06 3 6 mph 1028.3mb 37f 31f
7:00 5 6 mph 1028.2mb 37f 31f
6:54 3 6 mph 1028.3mb 37f 30f
6:48 5 7 mph 1028.2mb 37f 30f
6:42 3 5 mph 1028.2mb 37f 30f
6:36 3 5 mph 1028.2mb 37f 30f
6:30 3 5 mph 1028mb 37f 29f
6:24 2 5 mph 1028mb 37f 29f
6:18 2 5 mph 1028mb 37f 29f
6:12 3 6 mph 1028mb 37f 30f
6:06 5
mph
1027.9mb 37f 30f
6:00 5
mph
1027.9mb 37f 30f
5:54 2 6 mph 1027.7mb 37f 30f
5:48 3 7 mph 1027.7mb 37f 31f
5:42 6 8 mph 1027.7mb 37f 31f
5:36 3 5 mph 1027.6mb 37f 31f
5:30 1 5 mph 1027.5mb 37f 31f
5:24  -  7 mph 1027.5mb 37f 31f
5:18 3 7 mph 1027.6mb 37f 31f
5:12 3 7 mph 1027.5mb 37f 31f
5:06 3 7 mph 1027.7mb 37f 31f
5:00 6 8 mph 1027.6mb 37f 31f
4:54 7 9 mph 1027.6mb 37f 31f
4:48 6 10 mph 1027.7mb 37f 31f
4:42 5 8 mph 1027.8mb 37f 31f
4:36 3 8 mph 1027.7mb 37f 31f
4:30  -  8 mph 1027.6mb 37f 31f
4:24 2 5 mph 1027.7mb 37f 31f
4:18 5 8 mph 1027.6mb 37f 31f
4:12 7 10 mph 1027.5mb 37f 32f
4:06 6 9 mph 1027.5mb 37f 31f
4:00 5 8 mph 1027.4mb 38f 31f
3:54 3 10 mph 1027.5mb 38f 32f
3:48 5 9 mph 1027.6mb 38f 32f
3:42 7 9 mph 1027.7mb 38f 32f
3:36 7 9 mph 1027.7mb 38f 32f
3:30 6 9 mph 1027.6mb 38f 32f
3:24 5 8 mph 1027.6mb 38f 32f
3:18 3 7 mph 1027.6mb 38f 32f
3:12 3 5 mph 1027.7mb 38f 32f
3:06 5 7 mph 1027.7mb 38f 32f
3:00 3 7 mph 1027.7mb 38f 32f
2:54 5 9 mph 1027.7mb 38f 32f
2:48 6 9 mph 1027.6mb 38f 33f
2:42 5 7 mph 1027.6mb 38f 32f
2:36 5 7 mph 1027.5mb 38f 33f
2:30 5 7 mph 1027.4mb 38f 33f
2:24 5 7 mph 1027.5mb 38f 33f
2:18 5 8 mph 1027.5mb 38f 33f
2:12 5 7 mph 1027.4mb 38f 33f
2:06 5 8 mph 1027.3mb 38f 33f
2:00 6 8 mph 1027.3mb 38f 33f
1:54 3 7 mph 1027mb 38f 33f
1:48 2 7 mph 1027mb 38f 33f
1:42 3 7 mph 1027mb 38f 33f
1:36 2 7 mph 1027mb 38f 33f
1:30 3 8 mph 1027mb 38f 33f
1:24 5 10 mph 1027mb 38f 33f
1:18 3 9 mph 1027.1mb 38f 33f
1:12 5 10 mph 1027.1mb 38f 33f
1:06 3 10 mph 1027.1mb 38f 34f
1:00 3 8 mph 1027.1mb 38f 34f
12:54 3 11 mph 1027.1mb 38f 34f
12:48 3 8 mph 1027mb 38f -
12:42 3 10 mph 1027.1mb 38f -
12:36 5 10 mph 1027.2mb 37f -
12:30 6 10 mph 1027.2mb 37f 35f
12:24 5 10 mph 1027.3mb 37f 35f
12:18 7 10 mph 1027.4mb 37f 35f
12:12 7 13 mph 1027.4mb 37f 35f
12:06 7 10 mph 1027.4mb 37f 35f
12:00 6 11 mph 1027.4mb 37f 35f
Seg 02/20 11:54 7 14 mph 1027.3mb 37f 35f
11:48 8 11 mph 1027.2mb 37f 35f
11:42 8 11 mph 1027.2mb 37f 35f
11:36 8 13 mph 1027mb 37f 36f
11:30 6 10 mph 1027mb 37f 36f
11:24 7 11 mph 1027mb 37f 36f
11:18 5 14 mph 1027mb 37f 36f
11:12 10 15 mph 1026.9mb 37f 36f
11:06 8 15 mph 1027mb 37f 36f
11:00 9 14 mph 1026.9mb 37f 36f
10:54 9 14 mph 1026.9mb 37f 36f
10:48 9 13 mph 1026.9mb 37f 36f
10:42 8 11 mph 1026.8mb 37f 36f
10:36 8 14 mph 1026.8mb 37f 36f
10:30 8 14 mph 1026.6mb 37f 37f
10:24 9 13 mph 1026.6mb 37f 37f
10:18 9 15 mph 1026.6mb 37f 37f
10:12 9 16 mph 1026.6mb 37f 37f
10:06 10 16 mph 1026.5mb 37f 37f
10:00 10 13 mph 1026.5mb 37f 37f
9:54 7 9 mph 1026.5mb 37f 37f
9:48 9 11 mph 1026.6mb 37f 37f
9:42 8 14 mph 1026.5mb 37f 37f
9:36 9 11 mph 1026.5mb 37f 38f
9:30 8 10 mph 1026.5mb 37f 38f
9:24 7 13 mph 1026.3mb 37f 38f
9:18 7 9 mph 1026.4mb 37f 38f
9:12 6 9 mph 1026.4mb 37f 38f
9:06 8 13 mph 1026.2mb 37f 38f
9:00 8 10 mph 1026.2mb 37f 38f
8:54 8 13 mph 1026.2mb 37f 38f
8:48 8 13 mph 1026.2mb 37f 38f
8:42 8 14 mph 1026.1mb 37f 39f
8:36 9 14 mph 1025.9mb 37f 39f
8:30 9 14 mph 1025.8mb 37f 39f
8:24 9 14 mph 1025.8mb 37f 39f
8:18 9 13 mph 1025.7mb 37f 39f
8:12 8 14 mph 1025.6mb 37f 39f
8:06 10 14 mph 1025.5mb 37f 39f
8:00 8 13 mph 1025.5mb 37f 40f
7:54 7 14 mph 1025.4mb 37f 40f
7:48 9 14 mph 1025.3mb 37f 40f
7:42 9 13 mph 1025.3mb 37f 40f
7:36 8 14 mph 1025.2mb 37f 40f
7:30 9 15 mph 1025.1mb 37f 40f
7:24 8 14 mph 1025.1mb 37f 40f
7:18 8 15 mph 1025mb 37f 40f
7:12 7 11 mph 1024.9mb 37f 40f
7:06 9 15 mph 1024.9mb 37f 40f
7:00 8 16 mph 1024.9mb 37f 40f
6:54 8 16 mph 1024.9mb 37f 40f
6:48 5 9 mph 1024.6mb 37f 41f
6:42 3 10 mph 1024.6mb 37f 41f
6:36 3 10 mph 1024.6mb 37f 41f
6:30 3 8 mph 1024.5mb 37f 41f
6:24 6 13 mph 1024.5mb 37f 41f
6:18 5 13 mph 1024.4mb 37f 41f
6:12 7 13 mph 1024.4mb 37f 41f
6:06 6 10 mph 1024.3mb 37f 42f
6:00 7 10 mph 1024.1mb 37f 42f
5:54 3 8 mph 1023.9mb 37f 42f
5:48 3 8 mph 1023.9mb - -
5:42 6 10 mph 1023.6mb 37f 42f
5:36 5 13 mph 1023.4mb 37f 42f
5:30 6 11 mph 1023.3mb 37f 42f
5:24 3 11 mph 1023mb 37f 43f
5:18 6 13 mph 1022.8mb 37f 43f
5:12 9 16 mph 1022.6mb 37f 44f
5:06 7 15 mph 1022.4mb 37f 44f
5:00 6 16 mph 1022.2mb 37f 44f
4:54 10 15 mph 1021.9mb 37f 44f
4:48 5 15 mph 1021.8mb 37f 44f
4:42 3 17 mph 1021.6mb 37f 44f
4:36 3 14 mph 1021.4mb 37f 45f
4:30 6 14 mph 1021.3mb 37f 45f
4:24 7 15 mph 1021.2mb 37f 45f
4:18 7 14 mph 1021.1mb 37f 45f
4:12 8 13 mph 1020.9mb 37f 45f
4:06 7 13 mph 1020.9mb 37f 45f
4:00 6 14 mph 1020.9mb 38f 45f
3:54 6 16 mph 1020.7mb 38f 45f
3:48 10 17 mph 1020.6mb 38f 45f
3:42 14 18 mph 1020.6mb 38f 46f
3:36 13 17 mph 1020.5mb 38f 46f
3:30 9 16 mph 1020.5mb 38f 46f
3:24 10 18 mph 1020.5mb 38f 46f
3:18 6 14 mph 1020.5mb 38f 46f
3:12 11 16 mph 1020.4mb 38f 46f
3:06 9 14 mph 1020.4mb 38f 46f
3:00 6 15 mph 1020.3mb 38f 46f
2:54 3 17 mph 1020.2mb 38f 46f
2:48 5 14 mph 1020.2mb 38f 46f
2:42 7 16 mph 1020.2mb 38f 46f
2:36 14 18 mph 1020.1mb 38f 46f
2:30 8 15 mph 1020mb 38f 46f
2:24 6 21 mph 1019.9mb 38f 46f
2:18 14 18 mph 1019.8mb 38f 46f
2:12 15 20 mph 1019.8mb 38f 45f
2:06 7 21 mph 1019.8mb 38f 46f
2:00 10 17 mph 1019.8mb 38f 46f
1:54 8 18 mph 1019.6mb 38f 46f
1:48 9 16 mph 1019.6mb 38f 46f
1:42 13 17 mph 1019.5mb 38f 45f
1:36 5 15 mph 1019.5mb 38f 46f
1:30 10 17 mph 1019.5mb 38f 46f
1:24 10 16 mph 1019.5mb 38f 46f
1:18 9 14 mph 1019.5mb 38f 45f
1:12 10 21 mph 1019.5mb 38f 46f
1:06 17 23 mph 1019.4mb 37f 45f
1:00 11 18 mph 1019.5mb 37f 45f
12:54 11 16 mph 1019.6mb 37f 45f
12:48 8 20 mph 1019.8mb 37f 45f
12:42 9 21 mph 1019.8mb 37f 45f
12:36 13 18 mph 1019.7mb 37f 44f
12:30 10 15 mph 1019.7mb 37f 45f
12:24 5 15 mph 1019.7mb 37f 45f
12:18 7 16 mph 1019.6mb 37f 45f
12:12 7 16 mph 1019.6mb 37f 45f
12:06 11 17 mph 1019.7mb 37f 44f
12:00 8 14 mph 1019.6mb 37f 44f
11:54 5 15 mph 1019.7mb 37f 44f
11:48 7 17 mph 1019.8mb 37f 44f
11:42 3 11 mph 1019.7mb 37f 44f
11:36 9 15 mph 1019.8mb 37f 44f
11:30 5 15 mph 1019.8mb 37f 44f
11:24 8 14 mph 1019.7mb 37f 44f
11:18 7 17 mph 1019.7mb 37f 44f
11:12 10 15 mph 1019.7mb 37f 43f
11:06 6 14 mph 1019.8mb 37f 44f
11:00 13 17 mph 1019.8mb 37f 43f
10:54 9 16 mph 1019.7mb 37f 43f
10:48 9 15 mph 1019.6mb 37f 43f
10:42 10 18 mph 1019.6mb 37f 43f
10:36 14 18 mph 1019.6mb 37f 43f
10:30 14 20 mph 1019.7mb 37f 43f
10:24 9 15 mph 1019.7mb 37f 43f
10:18 14 17 mph 1019.7mb 37f 43f
10:12 11 17 mph 1019.7mb 37f 43f
10:06 13 18 mph 1019.6mb 37f 43f
10:00 9 16 mph 1019.6mb 37f 43f
9:54 10 16 mph 1019.6mb 37f 42f
9:48 14 17 mph 1019.5mb 37f 42f
9:42 10 17 mph 1019.6mb 37f 42f
9:36 13 18 mph 1019.5mb 37f 42f
9:30 15 22 mph 1019.4mb 37f 42f
9:24 13 17 mph 1019.4mb 37f 42f
9:18 9 14 mph 1019.5mb 37f 42f
9:12 7 14 mph 1019.6mb 37f 42f
9:06 6 15 mph 1019.6mb 37f 42f
9:00 7 17 mph 1019.5mb 37f 41f
8:54 8 15 mph 1019.5mb 37f 41f
8:48 8 16 mph 1019.5mb 37f 42f
8:42 8 16 mph 1019.5mb 37f 42f
8:36 10 17 mph 1019.4mb 37f 41f
8:30 8 17 mph 1019.3mb 37f 41f
8:24 9 15 mph 1019.4mb 37f 41f
8:18 6 13 mph 1019.3mb 37f 41f
8:12 6 11 mph 1019.2mb 37f 41f
8:06 3 10 mph 1019mb 37f 42f
8:00 3 9 mph 1018.9mb 37f 43f
7:54 3 9 mph 1018.9mb 37f 43f
7:48 3 10 mph 1018.8mb 37f 42f
7:42 3 10 mph 1018.8mb 37f 42f
7:36 7 14 mph 1018.4mb 37f 42f
7:30 7 14 mph 1018.4mb 37f 42f
7:24 8 13 mph 1018.1mb 37f 42f
7:18 6 11 mph 1018mb 37f 42f
7:12 5 8 mph 1018mb 37f 42f
7:06 6 13 mph 1017.8mb 37f 41f
7:00 10 13 mph 1017.6mb 37f 41f
6:54 6 8 mph 1017.5mb 37f 40f
6:48 2 6 mph 1017.5mb 37f 40f
6:42 2 5 mph 1017.3mb 37f 40f
6:36 2 6 mph 1017.1mb 37f 41f
6:30 5 11 mph 1016.9mb 37f 41f
6:24 8 13 mph 1016.7mb 37f 41f
6:18 8 13 mph 1016.7mb 37f 41f
6:12 8 10 mph 1016.5mb 37f 41f
6:06 6 8 mph 1016.4mb 37f 41f
6:00 6 8 mph 1016.3mb 37f 41f
5:54 5 7 mph 1016.2mb 37f 41f
5:48 5 7 mph 1016.1mb 37f 41f
5:42 2 7 mph 1016mb 37f 42f
5:36 7 13 mph 1015.9mb 37f 42f
5:30 9 13 mph 1015.9mb 37f 42f
5:24 9 13 mph 1015.8mb 37f 42f
5:18 9 11 mph 1015.7mb 37f 42f
5:12 8 11 mph 1015.7mb 37f 42f
5:06 7 10 mph 1015.5mb 37f 42f
5:00 7 8 mph 1015.5mb 37f 42f
4:54 6 8 mph 1015.3mb 37f 42f
4:48 5 6 mph 1015.2mb 37f 42f
4:42 5 6 mph 1015.1mb 37f 42f
4:36 7 10 mph 1015mb 37f 43f
4:30 5 7 mph 1014.9mb 37f 43f
4:24 6 7 mph 1014.7mb 37f 43f
4:18 6 8 mph 1014.5mb 37f 43f
4:12 7 10 mph 1014.4mb 37f 43f
4:06 7 10 mph 1014.2mb 37f 43f
4:00 6 9 mph 1014.1mb 37f 44f
3:54 7 9 mph 1014mb 37f 44f
3:48 7 9 mph 1013.9mb 37f 44f
3:42 7 9 mph 1013.8mb 37f 44f
3:36 7 9 mph 1013.7mb 37f 44f
3:30 7 9 mph 1013.7mb 37f 44f
3:24 7 10 mph 1013.7mb 37f 44f
3:18 7 9 mph 1013.6mb 37f 44f
3:12 8 10 mph 1013.6mb 37f 44f
3:06 7 10 mph 1013.6mb 37f 44f
3:00 8 10 mph 1013.5mb 37f 45f
2:54 7 9 mph 1013.4mb 37f 45f
2:48 7 9 mph 1013.4mb 37f 45f
2:42 8 11 mph 1013.4mb 38f 46f
2:36 8 10 mph 1013.3mb 38f 46f
2:30 7 10 mph 1013.3mb 38f 46f
2:24 7 10 mph 1013.2mb 38f 45f
2:18 7 10 mph 1013.1mb 38f 45f
2:12 6 11 mph 1013.1mb 38f 46f
2:06 9 11 mph 1013mb 38f 45f
2:00 6 8 mph 1013mb 38f 45f
1:54 6 8 mph 1013mb 38f 45f
1:48 7 10 mph 1012.9mb 38f 45f
1:42 7 9 mph 1012.8mb 38f 46f
1:36 5 9 mph 1012.9mb 38f 46f
1:30 3 9 mph 1012.8mb 38f 46f
1:24 7 9 mph 1012.7mb 38f 46f
1:18 7 9 mph 1012.7mb 38f 46f
1:12 7 10 mph 1012.7mb 38f 46f
1:06 8 10 mph 1012.6mb 37f 46f
1:00 9 13 mph 1012.4mb 37f 46f
12:54 7 10 mph 1012.4mb 37f 46f
12:48 8 11 mph 1012.3mb 37f 46f
12:42 10 15 mph 1012.3mb 37f 46f
12:36 10 14 mph 1012.2mb 37f 46f
12:30 10 15 mph 1012.2mb 37f 46f
12:24 10 15 mph 1012.1mb 37f 46f
12:18 8 13 mph 1012.1mb 37f 47f
12:12 5 10 mph 1012mb 37f 47f
12:06 5 8 mph 1011.9mb 37f 47f
12:00 7 14 mph 1011.9mb 37f 47f
Dom 02/19 11:54 7 15 mph 1011.9mb 37f 47f
11:48 8 13 mph 1011.9mb 37f 47f
11:42 7 14 mph 1011.9mb 37f 47f
11:36 9 14 mph 1011.8mb 37f 47f
11:30 9 14 mph 1011.8mb 37f 47f
11:24 10 14 mph 1011.8mb 37f 47f
11:18 8 14 mph 1011.6mb 37f 48f
11:12 10 15 mph 1011.5mb 37f 48f
11:06 11 14 mph 1011.5mb 37f 48f
11:00 9 11 mph 1011.5mb 37f 48f
10:54 9 11 mph 1011.6mb 37f 48f
10:48 9 13 mph 1011.5mb 37f 48f
10:42 8 13 mph 1011.4mb 37f 48f
10:36 9 13 mph 1011.3mb 37f 48f
10:30 8 11 mph 1011.4mb 37f 48f
10:24 8 13 mph 1011.4mb 37f 48f
10:18 9 11 mph 1011.3mb 37f 48f
10:12 9 11 mph 1011.3mb 37f 48f
10:06 8 13 mph 1011.3mb 37f 49f
10:00 9 13 mph 1011.3mb 37f 49f
9:54 10 14 mph 1011.2mb 37f 49f
9:48 9 13 mph 1011.3mb 37f 49f
9:42 10 15 mph 1011.3mb 37f 49f
9:36 8 14 mph 1011.2mb 37f 49f
9:30 9 13 mph 1011.1mb 37f 49f
9:24 7 11 mph 1011.1mb 37f 49f
9:18 7 11 mph 1011mb 37f 50f
9:12 8 13 mph 1011mb 37f 50f
9:06 8 11 mph 1010.9mb 37f 50f
9:00 8 11 mph 1010.9mb 37f 50f
8:54 10 15 mph 1010.7mb 37f 50f
8:48 9 15 mph 1010.7mb 37f 51f
8:42 10 16 mph 1010.7mb 37f 51f
8:36 9 14 mph 1010.6mb 37f 51f
8:30 11 15 mph 1010.6mb 37f 51f
8:24 13 18 mph 1010.6mb 37f 52f
8:18 9 20 mph 1010.6mb 37f 52f
8:12 8 20 mph 1010.5mb 37f 52f
8:06 9 18 mph 1010.4mb 37f 52f
8:00 14 20 mph 1010.2mb 37f 52f
7:54 13 22 mph 1010.2mb 37f 52f
7:48 11 17 mph 1010.1mb 37f 53f
7:42 11 18 mph 1010.1mb 37f 53f
7:36 8 13 mph 1010mb 37f 53f
7:30 9 14 mph 1009.9mb 37f 53f
7:24 8 11 mph 1009.8mb 37f 53f
7:18 8 14 mph 1009.8mb 37f 53f
7:12 9 13 mph 1009.7mb 37f 53f
7:06 9 13 mph 1009.6mb 37f 54f
7:00 8 13 mph 1009.6mb 37f 54f
6:54 9 13 mph 1009.5mb 37f 54f
6:48 7 11 mph 1009.3mb 37f 54f
6:42 8 11 mph 1009.3mb 37f 54f
6:36 9 16 mph 1009.2mb 37f 55f
6:30 10 20 mph 1009.1mb 37f 55f
6:24 11 16 mph 1009mb 37f 55f
6:18 11 16 mph 1008.9mb 37f 56f
6:12 11 18 mph 1008.7mb 37f 56f
6:06 11 16 mph 1008.6mb 37f 56f
6:00 10 17 mph 1008.5mb 37f 57f
5:54 7 11 mph 1008.4mb 37f 57f
5:48 6 8 mph 1008.2mb 37f 56f
5:42 5 7 mph 1008.1mb 37f 57f
5:36 6 7 mph 1007.9mb 37f 57f
5:30 5 7 mph 1007.7mb 37f 58f
5:24 5 8 mph 1007.6mb 37f 58f
5:18 6 13 mph 1007.4mb 37f 59f
5:12 9 16 mph 1007.2mb 37f 59f
5:06 10 17 mph 1007mb 37f 59f
5:00 9 20 mph 1006.8mb 37f 60f
4:54 15 18 mph 1006.7mb 37f 60f
4:48 11 20 mph 1006.6mb 37f 60f
4:42 11 23 mph 1006.5mb 37f 61f
4:36 17 23 mph 1006.4mb 37f 61f
4:30 13 20 mph 1006.3mb 37f 61f
4:24 15 22 mph 1006.3mb 37f 61f
4:18 18 25 mph 1006.2mb 37f 61f
4:12 15 22 mph 1006mb 37f 61f
4:06 10 16 mph 1005.9mb 37f 61f
4:00 14 22 mph 1005.7mb 37f 61f
3:54 18 25 mph 1005.5mb 37f 61f
3:48 10 18 mph 1005.4mb 37f 62f
3:42 21 30 mph 1005.3mb 37f 62f
3:36 20 25 mph 1005.3mb 37f 62f
3:30 15 23 mph 1005.3mb 37f 62f
3:24 16 22 mph 1005.2mb 37f 61f
3:18 10 24 mph 1005.2mb 37f 62f
3:12 14 20 mph 1005.2mb 37f 62f
3:06 17 26 mph 1005.1mb 38f 62f
3:00 9 20 mph 1005.2mb 38f 61f
2:54 13 17 mph 1005.1mb 38f 61f
2:48 10 26 mph 1005.1mb 38f 61f
2:42 20 24 mph 1005mb 38f 61f
2:36 11 18 mph 1005mb 38f 61f
2:30 15 21 mph 1005mb 38f 61f
2:24 11 23 mph 1004.9mb 38f 61f
2:18 16 24 mph 1004.8mb 38f 61f
2:12 11 18 mph 1004.8mb 38f 61f
2:06 11 17 mph 1004.9mb 38f 61f
2:00 5 10 mph 1005.1mb 38f 61f
1:54 8 13 mph 1005.1mb 38f 60f
1:48 9 15 mph 1005.1mb 38f 60f
1:42 9 16 mph 1005.1mb 38f 60f
1:36 8 17 mph 1005.1mb 38f 60f
1:30 11 20 mph 1005mb 38f 60f
1:24 11 18 mph 1005.1mb 38f 60f
1:18 11 15 mph 1005.2mb 38f 60f
1:12 7 13 mph 1005.2mb 38f 60f
1:06 7 14 mph 1005.2mb 38f 60f
1:00 6 13 mph 1005.2mb 38f 60f
12:54 9 13 mph 1005.1mb 38f 59f
12:48 9 13 mph 1005.2mb 38f 59f
12:42 10 16 mph 1005.3mb 38f 59f
12:36 10 15 mph 1005.3mb 38f 58f
12:30 9 15 mph 1005.2mb 38f 58f
12:24 9 17 mph 1005.3mb 38f 58f
12:18 8 11 mph 1005.4mb 38f 58f
12:12 8 15 mph 1005.5mb 38f 58f
12:06 15 18 mph 1005.6mb 38f 58f
12:00 10 20 mph 1005.6mb 38f 57f
11:54 10 15 mph 1005.6mb 38f 58f
11:48 13 18 mph 1005.7mb 38f 58f
11:42 7 17 mph 1005.7mb 38f 58f
11:36 10 14 mph 1005.8mb 38f 57f
11:30 10 14 mph 1005.9mb 38f 57f
11:24 9 16 mph 1006mb 38f 57f
11:18 13 16 mph 1006.1mb 38f 56f
11:12 9 14 mph 1006.2mb 38f 56f
11:06 10 16 mph 1006.2mb 38f 56f
11:00 7 11 mph 1006.2mb 38f 56f
10:54 9 13 mph 1006.2mb 38f 56f
10:48 8 15 mph 1006.2mb 38f 56f
10:42 5 8 mph 1006.2mb 38f 56f
10:36 8 10 mph 1006.1mb 38f 56f
10:30 5 8 mph 1006mb 38f 56f
10:24 5 10 mph 1005.9mb 38f 56f
10:18 8 10 mph 1005.9mb 38f 56f
10:12 8 15 mph 1005.8mb 38f 55f
10:06 10 15 mph 1005.8mb 38f 55f
10:00 10 14 mph 1005.8mb 38f 55f
9:54 10 16 mph 1005.7mb 38f 55f
9:48 10 16 mph 1005.7mb 38f 55f
9:42 13 16 mph 1005.7mb 38f 54f
9:36 8 13 mph 1005.7mb 38f 55f
9:30 7 15 mph 1005.7mb 38f 54f
9:24 9 11 mph 1005.6mb 38f 54f
9:18 5 9 mph 1005.6mb 38f 54f
9:12 6 10 mph 1005.5mb 38f 53f
9:06 6 10 mph 1005.5mb 38f 53f
9:00 7 11 mph 1005.5mb 37f 52f
8:54 8 10 mph 1005.3mb 37f 53f
8:48 5 10 mph 1005.3mb 37f 52f
8:42 6 10 mph 1005.3mb 37f 52f
8:36 5 9 mph 1005.3mb 37f 52f
8:30 7 9 mph 1005.3mb 37f 51f
8:24 8 13 mph 1005.2mb 37f 51f
8:18 9 15 mph 1005.2mb 37f 51f
8:12 9 11 mph 1005.2mb 37f 51f
8:06 7 10 mph 1005mb 37f 51f
8:00 7 9 mph 1005mb 37f 50f
7:54 7 10 mph 1005mb 37f 50f
7:48 7 10 mph 1005mb 37f 50f
7:42 6 8 mph 1005.1mb 37f 50f
7:36 7 10 mph 1004.9mb 37f 50f
7:30 7 9 mph 1004.9mb 37f 50f
7:24 7 10 mph 1004.9mb 37f 49f
7:18 6 9 mph 1004.9mb 37f 49f
7:12 6 9 mph 1004.9mb 37f 48f
7:06 6 8 mph 1004.9mb 37f 47f
7:00 6 8 mph 1004.8mb 37f 47f
6:54 7 9 mph 1004.7mb 37f 47f
6:48 7 10 mph 1004.7mb 37f 46f
6:42 7 10 mph 1004.7mb 37f 46f
6:36 6 9 mph 1004.7mb 37f 45f
6:30 5 7 mph 1004.6mb 37f 45f
6:24 5 7 mph 1004.6mb 37f 45f
6:18 5 8 mph 1004.5mb 37f 44f
6:12 3 6 mph 1004.4mb 37f 44f
6:06 2 5 mph 1004.4mb 37f 44f
6:00 2 5 mph 1004.4mb 37f 44f
5:54 5 7 mph 1004.3mb 37f 44f
5:48 5 7 mph 1004.2mb 37f 44f
5:42 6 8 mph 1004.2mb 37f 45f
5:36 6 7 mph 1004.1mb 37f 45f
5:30 6 8 mph 1004mb 37f 45f
5:24 7 8 mph 1003.9mb 37f 45f
5:18 5 6 mph 1003.8mb 37f 45f
5:12 6 7 mph 1003.8mb 37f 45f
5:06 7 8 mph 1003.7mb 37f 45f
5:00 6 7 mph 1003.6mb 37f 45f
4:54 3 6 mph 1003.5mb 37f 45f
4:48 3 7 mph 1003.5mb 37f 45f
4:42 6 9 mph 1003.4mb 37f 45f
4:36 6 8 mph 1003.3mb 37f 45f
4:30 5 7 mph 1003.3mb 37f 44f
4:24 5 7 mph 1003.2mb 37f 44f
4:18 5 6 mph 1003.2mb 37f 44f
4:12 3 5 mph 1003.1mb 37f 44f
4:06 3 7 mph 1003mb 37f 45f
4:00 3 7 mph 1002.8mb 37f 45f
3:54 6 9 mph 1002.7mb 37f 45f
3:48 6 9 mph 1002.6mb 37f 45f
3:42 6 8 mph 1002.6mb 37f 45f
3:36 5 6 mph 1002.5mb 37f 45f
3:30 5 6 mph 1002.5mb 37f 45f
3:24 7 10 mph 1002.2mb 37f 46f
3:18 8 11 mph 1002.1mb 37f 46f
3:12 8 10 mph 1002mb 37f 45f
3:06 8 9 mph 1001.9mb 37f 45f
3:00 7 9 mph 1001.8mb 37f 45f
2:54 7 9 mph 1001.9mb 37f 45f
2:48 7 10 mph 1001.7mb 37f 45f
2:42 8 10 mph 1001.7mb 37f 45f
2:36 8 10 mph 1001.5mb 37f 45f
2:30 8 10 mph 1001.5mb 37f 44f
2:24 8 9 mph 1001.5mb 37f 44f
2:18 6 8 mph 1001.4mb 37f 40f
2:12 3 5 mph 1001.4mb 37f 40f
2:06 2 3 mph 1001.3mb 38f 40f
2:00 1 3 mph 1001.2mb 38f 40f
1:54  -  1 mph 1001.1mb 38f 39f
1:48  -  2 mph 1001mb 38f 39f
1:42 2 3 mph 1001mb 38f 39f
1:36 2 3 mph 1000.9mb 38f 40f
1:30 3 5 mph 1000.9mb 38f 40f
1:24 5
mph
1000.9mb 38f 40f
1:18 5
mph
1000.9mb 38f 40f
1:12 2 3 mph 1001mb 38f 40f
1:06 3 5 mph 1000.9mb 38f 40f
1:00 3 5 mph 1000.9mb 38f 40f
12:54 3 6 mph 1000.9mb 38f 40f
12:48 5 6 mph 1001mb 38f 40f
12:42 6 7 mph 1001mb 38f 40f
12:36 6
mph
1001mb 38f 39f
12:30 2 3 mph 1001mb 38f 40f
12:24 2
mph
1001.1mb 38f 40f
12:18  -  2 mph 1001mb 38f 40f
12:12 2 5 mph 1001mb 38f 40f
12:06 3 5 mph 1001mb 38f 40f
12:00 5
mph
1001mb 38f 40f
Sáb 02/18 11:54 5 6 mph 1001mb 38f 40f
11:48 3 5 mph 1001mb 38f 41f
11:42 5
mph
1000.9mb 38f 41f
11:36 3 6 mph 1000.9mb 38f 42f
11:30 5 7 mph 1000.8mb 38f 42f
11:24 5 6 mph 1000.8mb 38f 42f
11:18 5 6 mph 1000.8mb 38f 42f
11:12 5 6 mph 1000.8mb 38f 42f
11:06 5 6 mph 1000.9mb 38f 41f
11:00 3 5 mph 1000.9mb 38f 42f
10:54 5
mph
1000.9mb 38f 42f
10:48 3 5 mph 1001mb 38f 42f
10:42 5
mph
1000.9mb 38f 42f